createdAt,value
2022-12-11T00:00:43.591Z,733.5
2022-12-11T00:02:27.291Z,736
2022-12-11T00:04:10.984Z,741
2022-12-11T00:05:54.738Z,744.5
2022-12-11T00:07:38.406Z,741.1
2022-12-11T00:09:22.099Z,742.3
2022-12-11T00:11:05.800Z,741.4
2022-12-11T00:12:49.512Z,739.4
2022-12-11T00:14:33.212Z,737.5
2022-12-11T00:16:16.926Z,734.9
2022-12-11T00:18:00.617Z,735.7
2022-12-11T00:19:44.322Z,738.7
2022-12-11T00:21:28.035Z,742.7
2022-12-11T00:23:11.722Z,741.5
2022-12-11T00:24:55.424Z,740.1
2022-12-11T00:26:39.131Z,738.2
2022-12-11T00:28:22.832Z,736
2022-12-11T00:30:06.548Z,738.7
2022-12-11T00:31:50.237Z,741.1
2022-12-11T00:33:33.942Z,744.6
2022-12-11T00:35:17.674Z,745.4
2022-12-11T00:37:01.347Z,746.3
2022-12-11T00:38:45.058Z,751.1
2022-12-11T00:40:28.747Z,755.4
2022-12-11T00:42:12.459Z,754.4
2022-12-11T00:43:56.213Z,752.4
2022-12-11T00:45:39.856Z,750.7
2022-12-11T00:47:23.557Z,750.2
2022-12-11T00:49:07.261Z,748.8
2022-12-11T00:50:50.981Z,749
2022-12-11T00:52:34.666Z,748.1
2022-12-11T00:54:18.372Z,749
2022-12-11T00:56:02.104Z,754.4
2022-12-11T00:57:45.809Z,756.6
2022-12-11T00:59:29.587Z,757.8
2022-12-11T01:01:13.186Z,758.1
2022-12-11T01:02:56.893Z,756.6
2022-12-11T01:04:40.584Z,754.1
2022-12-11T01:06:24.294Z,754.6
2022-12-11T01:08:07.999Z,757.5
2022-12-11T01:09:51.702Z,756.9
2022-12-11T01:11:35.425Z,754.8
2022-12-11T01:13:19.165Z,755.3
2022-12-11T01:15:02.802Z,753.4
2022-12-11T01:16:46.523Z,756
2022-12-11T01:18:30.206Z,755.8
2022-12-11T01:20:13.982Z,757.3
2022-12-11T01:21:57.615Z,759.6
2022-12-11T01:23:41.317Z,765.1
2022-12-11T01:25:25.017Z,764.4
2022-12-11T01:27:08.776Z,761.5
2022-12-11T01:28:52.457Z,754.4
2022-12-11T01:30:36.146Z,753.5
2022-12-11T01:32:19.828Z,752.8
2022-12-11T01:34:03.528Z,755.7
2022-12-11T01:35:47.227Z,758.7
2022-12-11T01:37:30.989Z,761.3
2022-12-11T01:39:14.635Z,761.5
2022-12-11T01:40:58.343Z,765.2
2022-12-11T01:42:42.041Z,762.9
2022-12-11T01:44:25.746Z,764.3
2022-12-11T01:46:09.450Z,764.2
2022-12-11T01:47:53.153Z,764.6
2022-12-11T01:49:36.856Z,767.4
2022-12-11T01:51:20.551Z,766.4
2022-12-11T01:53:04.259Z,767.6
2022-12-11T01:54:47.965Z,765.1
2022-12-11T01:56:31.663Z,763.7
2022-12-11T01:58:15.365Z,760.1
2022-12-11T01:59:59.084Z,759.3
2022-12-11T02:01:42.780Z,760.1
2022-12-11T02:03:26.480Z,761.8
2022-12-11T02:05:10.179Z,760
2022-12-11T02:06:53.872Z,759.1
2022-12-11T02:08:37.589Z,760.4
2022-12-11T02:10:21.281Z,762.5
2022-12-11T02:12:04.985Z,764.1
2022-12-11T02:13:48.694Z,767.9
2022-12-11T02:15:32.400Z,767.1
2022-12-11T02:17:16.102Z,767.4
2022-12-11T02:18:59.799Z,771.4
2022-12-11T02:20:43.510Z,776
2022-12-11T02:22:27.209Z,778.7
2022-12-11T02:24:10.914Z,779
2022-12-11T02:25:54.610Z,781
2022-12-11T02:27:38.311Z,779.1
2022-12-11T02:29:22.012Z,784.4
2022-12-11T02:31:05.724Z,784.1
2022-12-11T02:32:49.417Z,783.8
2022-12-11T02:34:33.126Z,784.3
2022-12-11T02:36:16.829Z,785.2
2022-12-11T02:38:00.522Z,783.3
2022-12-11T02:39:44.233Z,781
2022-12-11T02:41:27.940Z,780.3
2022-12-11T02:43:11.633Z,778
2022-12-11T02:44:55.342Z,779.6
2022-12-11T02:46:39.048Z,777.9
2022-12-11T02:48:22.751Z,776.8
2022-12-11T02:50:06.486Z,782.8
2022-12-11T02:51:50.151Z,791
2022-12-11T02:53:33.861Z,791.6
2022-12-11T02:55:17.621Z,789.4
2022-12-11T02:57:01.259Z,787
2022-12-11T02:58:44.979Z,786.7
2022-12-11T03:00:28.669Z,787.5
2022-12-11T03:02:12.369Z,790.4
2022-12-11T03:03:56.078Z,795.2
2022-12-11T03:05:39.783Z,791.7
2022-12-11T03:07:23.482Z,788.4
2022-12-11T03:09:07.189Z,787.4
2022-12-11T03:10:50.879Z,789.9
2022-12-11T03:12:34.591Z,793.1
2022-12-11T03:14:18.294Z,795.6
2022-12-11T03:16:01.998Z,794.4
2022-12-11T03:17:45.751Z,796.8
2022-12-11T03:19:29.415Z,798.9
2022-12-11T03:21:13.099Z,795.1
2022-12-11T03:22:56.811Z,788.2
2022-12-11T03:24:40.502Z,788.6
2022-12-11T03:26:24.207Z,789.3
2022-12-11T03:28:07.915Z,790.4
2022-12-11T03:29:51.618Z,791.9
2022-12-11T03:31:35.326Z,788.5
2022-12-11T03:33:19.023Z,787.4
2022-12-11T03:35:02.722Z,787.4
2022-12-11T03:36:46.435Z,790.4
2022-12-11T03:38:30.131Z,798.5
2022-12-11T03:40:13.832Z,799.9
2022-12-11T03:41:57.542Z,800.3
2022-12-11T03:43:41.259Z,799
2022-12-11T03:45:24.947Z,800.9
2022-12-11T03:47:08.647Z,799.7
2022-12-11T03:48:52.352Z,802
2022-12-11T03:50:36.107Z,806.4
2022-12-11T03:52:19.754Z,804.5
2022-12-11T03:54:03.468Z,804.9
2022-12-11T03:55:47.169Z,807.3
2022-12-11T03:57:30.870Z,808.8
2022-12-11T03:59:14.579Z,806.5
2022-12-11T04:00:58.274Z,806.3
2022-12-11T04:02:42.001Z,809.2
2022-12-11T04:04:25.693Z,808.1
2022-12-11T04:06:09.381Z,808.5
2022-12-11T04:07:53.084Z,809.6
2022-12-11T04:09:36.782Z,810.4
2022-12-11T04:11:20.504Z,812.4
2022-12-11T04:13:04.198Z,814.1
2022-12-11T04:14:47.888Z,813.3
2022-12-11T04:16:31.589Z,815.4
2022-12-11T04:18:15.302Z,817.2
2022-12-11T04:19:59.001Z,819.7
2022-12-11T04:21:42.706Z,822.9
2022-12-11T04:23:26.402Z,821.4
2022-12-11T04:25:10.109Z,817.1
2022-12-11T04:26:53.822Z,822.3
2022-12-11T04:28:37.511Z,822.1
2022-12-11T04:30:21.272Z,821.7
2022-12-11T04:32:04.918Z,820.9
2022-12-11T04:33:48.617Z,819.8
2022-12-11T04:35:32.323Z,824.6
2022-12-11T04:37:16.026Z,827.7
2022-12-11T04:38:59.726Z,825.9
2022-12-11T04:40:43.436Z,821.1
2022-12-11T04:42:27.125Z,820.9
2022-12-11T04:44:10.835Z,822.2
2022-12-11T04:45:54.542Z,836.3
2022-12-11T04:47:38.245Z,835.2
2022-12-11T04:49:21.943Z,830.8
2022-12-11T04:51:05.647Z,833.2
2022-12-11T04:52:49.349Z,834
2022-12-11T04:54:33.052Z,834.3
2022-12-11T04:56:16.748Z,836.8
2022-12-11T04:58:00.456Z,838.6
2022-12-11T04:59:44.165Z,839.3
2022-12-11T05:01:27.856Z,840.5
2022-12-11T05:03:11.567Z,838.6
2022-12-11T05:04:55.262Z,839.2
2022-12-11T05:06:38.970Z,839.8
2022-12-11T05:08:22.679Z,841.2
2022-12-11T05:10:06.396Z,841
2022-12-11T05:11:50.074Z,840.3
2022-12-11T05:13:33.780Z,839.7
2022-12-11T05:15:17.562Z,837.6
2022-12-11T05:17:01.182Z,837.6
2022-12-11T05:18:44.893Z,842.9
2022-12-11T05:20:28.593Z,844.8
2022-12-11T05:22:12.308Z,844.9
2022-12-11T05:23:56.003Z,845.9
2022-12-11T05:25:39.709Z,847.9
2022-12-11T05:27:23.418Z,847.6
2022-12-11T05:29:07.109Z,845.8
2022-12-11T05:30:50.821Z,849.2
2022-12-11T05:32:34.514Z,848.2
2022-12-11T05:34:18.221Z,849.3
2022-12-11T05:36:01.922Z,850.3
2022-12-11T05:37:45.629Z,855.8
2022-12-11T05:39:29.328Z,859.9
2022-12-11T05:41:13.036Z,862.3
2022-12-11T05:42:56.739Z,862.2
2022-12-11T05:44:40.442Z,865.4
2022-12-11T05:46:24.181Z,870.4
2022-12-11T05:48:07.835Z,868.4
2022-12-11T05:49:51.552Z,867.7
2022-12-11T05:51:35.251Z,868.2
2022-12-11T05:53:18.968Z,871.1
2022-12-11T05:55:02.667Z,869.1
2022-12-11T05:56:46.357Z,862.9
2022-12-11T05:58:30.062Z,861.5
2022-12-11T06:00:13.767Z,865.1
2022-12-11T06:01:57.477Z,871
2022-12-11T06:03:41.197Z,875.1
2022-12-11T06:05:24.921Z,872.9
2022-12-11T06:07:08.580Z,872.6
2022-12-11T06:08:52.284Z,873.9
2022-12-11T06:10:35.983Z,874.6
2022-12-11T06:12:19.749Z,875.8
2022-12-11T06:14:03.392Z,872.1
2022-12-11T06:15:47.116Z,869.2
2022-12-11T06:17:30.799Z,869.3
2022-12-11T06:19:14.497Z,868.2
2022-12-11T06:20:58.205Z,871.2
2022-12-11T06:22:41.905Z,873.8
2022-12-11T06:24:25.641Z,877.3
2022-12-11T06:26:09.390Z,876.5
2022-12-11T06:27:53.081Z,875.5
2022-12-11T06:29:36.714Z,874.5
2022-12-11T06:31:20.420Z,874.8
2022-12-11T06:33:04.112Z,877
2022-12-11T06:34:47.845Z,878
2022-12-11T06:36:31.526Z,876.8
2022-12-11T06:38:15.263Z,877
2022-12-11T06:39:58.925Z,875.2
2022-12-11T06:41:42.633Z,879.1
2022-12-11T06:43:26.332Z,880.7
2022-12-11T06:45:10.038Z,882.1
2022-12-11T06:46:53.731Z,884.9
2022-12-11T06:48:37.450Z,884.5
2022-12-11T06:50:21.143Z,883.2
2022-12-11T06:52:04.843Z,890.4
2022-12-11T06:53:48.542Z,894.7
2022-12-11T06:55:32.296Z,885.2
2022-12-11T06:57:15.949Z,886.2
2022-12-11T06:58:59.654Z,893.1
2022-12-11T07:00:43.358Z,895.6
2022-12-11T07:02:27.113Z,894.8
2022-12-11T07:04:10.772Z,900.2
2022-12-11T07:05:54.460Z,901
2022-12-11T07:07:38.174Z,903.1
2022-12-11T07:09:21.875Z,901.5
2022-12-11T07:11:05.587Z,903.5
2022-12-11T07:12:49.274Z,903.7
2022-12-11T07:14:32.973Z,900.4
2022-12-11T07:16:16.703Z,901.9
2022-12-11T07:18:00.492Z,904.9
2022-12-11T07:19:44.080Z,908.5
2022-12-11T07:21:27.858Z,906.5
2022-12-11T07:23:11.489Z,907.5
2022-12-11T07:24:55.347Z,910.3
2022-12-11T07:26:38.938Z,911.3
2022-12-11T07:28:22.628Z,912.5
2022-12-11T07:30:06.298Z,914.3
2022-12-11T07:31:50.169Z,913.4
2022-12-11T07:33:33.701Z,914.8
2022-12-11T07:35:17.402Z,913.9
2022-12-11T07:37:01.121Z,914.1
2022-12-11T07:38:44.909Z,911
2022-12-11T07:40:28.512Z,910.5
2022-12-11T07:42:12.222Z,911.1
2022-12-11T07:43:55.919Z,908.1
2022-12-11T07:45:39.658Z,910.5
2022-12-11T07:47:23.332Z,915.3
2022-12-11T07:49:07.034Z,916.6
2022-12-11T07:50:50.735Z,921.6
2022-12-11T07:52:34.438Z,923.5
2022-12-11T07:54:18.163Z,922.3
2022-12-11T07:56:01.852Z,923.3
2022-12-11T07:57:45.549Z,921.5
2022-12-11T07:59:29.244Z,924.5
2022-12-11T08:01:13.003Z,926.7
2022-12-11T08:02:56.661Z,928.4
2022-12-11T08:04:40.411Z,930.7
2022-12-11T08:06:24.062Z,930
2022-12-11T08:08:07.761Z,928
2022-12-11T08:09:51.464Z,927.6
2022-12-11T08:11:35.167Z,928.2
2022-12-11T08:13:18.872Z,933.9
2022-12-11T08:15:02.591Z,933.6
2022-12-11T08:16:46.281Z,932.9
2022-12-11T08:18:29.979Z,936.4
2022-12-11T08:20:13.696Z,936.9
2022-12-11T08:21:57.390Z,938.1
2022-12-11T08:23:41.101Z,934.2
2022-12-11T08:25:24.783Z,932.7
2022-12-11T08:27:08.490Z,933.9
2022-12-11T08:28:52.199Z,935.7
2022-12-11T08:30:35.899Z,939
2022-12-11T08:32:19.597Z,942.9
2022-12-11T08:34:03.292Z,945.4
2022-12-11T08:35:47.008Z,947.8
2022-12-11T08:37:30.709Z,945.6
2022-12-11T08:39:14.400Z,945.6
2022-12-11T08:40:58.115Z,951.1
2022-12-11T08:42:41.820Z,949.3
2022-12-11T08:44:25.513Z,951.1
2022-12-11T08:46:09.215Z,953.1
2022-12-11T08:47:52.940Z,955.2
2022-12-11T08:49:36.630Z,955
2022-12-11T08:51:20.332Z,951.3
2022-12-11T08:53:04.096Z,949.9
2022-12-11T08:54:47.733Z,952.1
2022-12-11T08:56:31.443Z,955.2
2022-12-11T08:58:15.137Z,956
2022-12-11T08:59:58.842Z,957.5
2022-12-11T09:01:42.555Z,956.7
2022-12-11T09:03:26.283Z,956.5
2022-12-11T09:05:09.948Z,958.1
2022-12-11T09:06:53.650Z,958.6
2022-12-11T09:08:37.405Z,962.8
2022-12-11T09:10:21.057Z,963.1
2022-12-11T09:12:04.752Z,963
2022-12-11T09:13:48.468Z,961.9
2022-12-11T09:15:32.164Z,965.8
2022-12-11T09:17:15.913Z,968.1
2022-12-11T09:18:59.591Z,967.2
2022-12-11T09:20:43.272Z,969.7
2022-12-11T09:22:26.976Z,969.5
2022-12-11T09:24:10.680Z,965.5
2022-12-11T09:25:54.379Z,970.1
2022-12-11T09:27:38.084Z,979.6
2022-12-11T09:29:21.790Z,992.7
2022-12-11T09:31:05.483Z,999.2
2022-12-11T09:32:49.200Z,1009.9
2022-12-11T09:34:33.005Z,1018.9
2022-12-11T09:36:16.592Z,1036.1
2022-12-11T09:38:00.307Z,1087.5
2022-12-11T09:39:43.999Z,1121.1
2022-12-11T09:41:27.701Z,1141.1
2022-12-11T09:44:55.180Z,1155.9
2022-12-11T09:46:38.813Z,1160
2022-12-11T09:48:22.523Z,1168.8
2022-12-11T09:50:06.220Z,1195.7
2022-12-11T09:51:49.922Z,1224.2
2022-12-11T09:53:33.621Z,1228.4
2022-12-11T09:55:17.341Z,1232.4
2022-12-11T09:57:01.022Z,1244.9
2022-12-11T09:58:44.721Z,1248
2022-12-11T10:00:28.424Z,1252.2
2022-12-11T10:02:12.127Z,1253.8
2022-12-11T10:03:55.831Z,1252.2
2022-12-11T10:05:39.610Z,1256.7
2022-12-11T10:07:23.237Z,1256.8
2022-12-11T10:09:06.950Z,1258.9
2022-12-11T10:10:50.658Z,1258.8
2022-12-11T10:12:34.339Z,1260.1
2022-12-11T10:14:18.058Z,1259.5
2022-12-11T10:16:01.758Z,1260.6
2022-12-11T10:17:45.442Z,1264.1
2022-12-11T10:19:29.162Z,1269.1
2022-12-11T10:21:12.862Z,1270.2
2022-12-11T10:22:56.564Z,1271.1
2022-12-11T10:24:40.270Z,1268.9
2022-12-11T10:26:23.967Z,1271.2
2022-12-11T10:28:07.667Z,1313.8
2022-12-11T10:29:51.371Z,1366.9
2022-12-11T10:31:35.078Z,1330
2022-12-11T10:33:18.781Z,1301.8
2022-12-11T10:35:02.502Z,1310.3
2022-12-11T10:36:46.183Z,1314.4
2022-12-11T10:38:29.890Z,1312.7
2022-12-11T10:40:13.586Z,1310.2
2022-12-11T10:41:57.298Z,1308.9
2022-12-11T10:43:41.001Z,1307.6
2022-12-11T10:45:24.691Z,1307.8
2022-12-11T10:47:08.402Z,1306.1
2022-12-11T10:48:52.103Z,1303.5
2022-12-11T10:50:35.805Z,1305.5
2022-12-11T10:52:19.505Z,1301
2022-12-11T10:54:03.208Z,1295.9
2022-12-11T10:55:46.919Z,1288.9
2022-12-11T10:57:30.624Z,1287.7
2022-12-11T10:59:14.330Z,1294.8
2022-12-11T11:00:58.027Z,1303.7
2022-12-11T11:02:41.729Z,1309.1
2022-12-11T11:04:25.422Z,1305.8
2022-12-11T11:06:09.144Z,1306.5
2022-12-11T11:07:52.831Z,1307.5
2022-12-11T11:09:36.534Z,1308.2
2022-12-11T11:11:20.231Z,1305.2
2022-12-11T11:13:03.934Z,1303.8
2022-12-11T11:14:47.652Z,1299.4
2022-12-11T11:16:31.352Z,1302.9
2022-12-11T11:18:15.037Z,1308.2
2022-12-11T11:19:58.752Z,1309.9
2022-12-11T11:21:42.452Z,1312.9
2022-12-11T11:23:26.162Z,1318.9
2022-12-11T11:25:09.853Z,1323.1
2022-12-11T11:26:53.557Z,1326.3
2022-12-11T11:28:37.261Z,1331.4
2022-12-11T11:30:20.968Z,1328.6
2022-12-11T11:32:04.662Z,1325.6
2022-12-11T11:33:48.370Z,1325
2022-12-11T11:35:32.075Z,1328.2
2022-12-11T11:37:15.782Z,1328.9
2022-12-11T11:38:59.480Z,1328.6
2022-12-11T11:40:43.184Z,1323.6
2022-12-11T11:42:26.887Z,1320.5
2022-12-11T11:44:10.606Z,1318.1
2022-12-11T11:45:54.294Z,1314.8
2022-12-11T11:47:37.993Z,1316
2022-12-11T11:49:21.770Z,1316
2022-12-11T11:51:05.437Z,1315.7
2022-12-11T11:52:49.124Z,1317.5
2022-12-11T11:54:32.805Z,1318.5
2022-12-11T11:56:16.504Z,1314.9
2022-12-11T11:58:00.209Z,1309.1
2022-12-11T11:59:43.987Z,1313.5
2022-12-11T12:01:27.618Z,1318.3
2022-12-11T12:03:11.324Z,1314.6
2022-12-11T12:04:55.016Z,1313.7
2022-12-11T12:06:38.798Z,1314.8
2022-12-11T12:08:22.436Z,1314.7
2022-12-11T12:10:06.124Z,1323.9
2022-12-11T12:11:49.831Z,1333.9
2022-12-11T12:13:33.539Z,1336.1
2022-12-11T12:15:17.265Z,1336.3
2022-12-11T12:17:00.952Z,1333.6
2022-12-11T12:18:44.640Z,1329.3
2022-12-11T12:20:28.343Z,1331.4
2022-12-11T12:22:12.057Z,1335.8
2022-12-11T12:23:55.751Z,1336.5
2022-12-11T12:25:39.501Z,1332.1
2022-12-11T12:27:23.163Z,1326.1
2022-12-11T12:29:06.857Z,1320
2022-12-11T12:30:50.604Z,1314.4
2022-12-11T12:32:34.266Z,1318.6
2022-12-11T12:34:17.983Z,1318.5
2022-12-11T12:36:01.676Z,1313
2022-12-11T12:37:45.374Z,1310.5
2022-12-11T12:39:29.084Z,1311.8
2022-12-11T12:41:12.781Z,1310.3
2022-12-11T12:42:56.475Z,1314
2022-12-11T12:44:40.182Z,1315.1
2022-12-11T12:46:23.909Z,1315.7
2022-12-11T12:48:07.592Z,1310.3
2022-12-11T12:49:51.309Z,1307.5
2022-12-11T12:51:34.990Z,1305.8
2022-12-11T12:53:18.698Z,1306.4
2022-12-11T12:55:02.409Z,1308
2022-12-11T12:56:46.096Z,1309.2
2022-12-11T12:58:29.804Z,1309.3
2022-12-11T13:00:13.732Z,1308.4
2022-12-11T13:01:57.253Z,1307.9
2022-12-11T13:03:40.925Z,1307.9
2022-12-11T13:05:24.716Z,1312.2
2022-12-11T13:07:08.343Z,1314.5
2022-12-11T13:08:52.016Z,1316.6
2022-12-11T13:10:35.720Z,1319.6
2022-12-11T13:12:19.424Z,1317.5
2022-12-11T13:14:03.130Z,1318
2022-12-11T13:15:46.852Z,1319.4
2022-12-11T13:17:30.588Z,1321.8
2022-12-11T13:19:14.229Z,1320.5
2022-12-11T13:20:57.984Z,1320.7
2022-12-11T13:22:41.682Z,1323.7
2022-12-11T13:24:25.411Z,1323.4
2022-12-11T13:26:09.052Z,1322.4
2022-12-11T13:27:52.758Z,1321.1
2022-12-11T13:29:36.545Z,1323.3
2022-12-11T13:31:20.151Z,1325.8
2022-12-11T13:33:03.848Z,1331
2022-12-11T13:34:47.558Z,1339.6
2022-12-11T13:36:31.261Z,1340.8
2022-12-11T13:38:14.955Z,1344.6
2022-12-11T13:39:58.659Z,1350.1
2022-12-11T13:41:42.359Z,1353.8
2022-12-11T13:43:26.090Z,1360.3
2022-12-11T13:45:09.763Z,1377
2022-12-11T13:46:53.470Z,1388.9
2022-12-11T13:48:37.196Z,1390
2022-12-11T13:50:20.876Z,1385.2
2022-12-11T13:52:04.576Z,1388.1
2022-12-11T13:53:48.281Z,1379.4
2022-12-11T13:55:31.988Z,1362.1
2022-12-11T13:57:15.685Z,1348.6
2022-12-11T13:58:59.383Z,1338.8
2022-12-11T14:00:43.097Z,1329.1
2022-12-11T14:02:26.796Z,1326
2022-12-11T14:04:10.494Z,1325.6
2022-12-11T14:05:54.196Z,1327
2022-12-11T14:07:37.939Z,1326.7
2022-12-11T14:09:21.611Z,1322.9
2022-12-11T14:11:05.304Z,1320.5
2022-12-11T14:12:49.007Z,1319.7
2022-12-11T14:14:32.731Z,1318.7
2022-12-11T14:16:16.419Z,1322
2022-12-11T14:18:00.123Z,1323.2
2022-12-11T14:19:43.822Z,1320.6
2022-12-11T14:21:27.540Z,1317.2
2022-12-11T14:23:11.248Z,1316.9
2022-12-11T14:24:54.923Z,1314.3
2022-12-11T14:26:38.634Z,1318.4
2022-12-11T14:28:22.338Z,1318.7
2022-12-11T14:30:06.039Z,1317.5
2022-12-11T14:31:49.747Z,1311.5
2022-12-11T14:33:33.439Z,1310.9
2022-12-11T14:35:17.145Z,1312
2022-12-11T14:37:00.860Z,1308.6
2022-12-11T14:38:44.554Z,1309.5
2022-12-11T14:40:28.246Z,1308.5
2022-12-11T14:42:11.959Z,1316.8
2022-12-11T14:43:55.701Z,1315.4
2022-12-11T14:45:39.358Z,1314.4
2022-12-11T14:47:23.202Z,1309.2
2022-12-11T14:49:06.765Z,1310.1
2022-12-11T14:50:50.493Z,1310
2022-12-11T14:52:34.165Z,1307.9
2022-12-11T14:54:17.878Z,1313.8
2022-12-11T14:56:01.574Z,1316.5
2022-12-11T14:57:45.281Z,1316.3
2022-12-11T14:59:28.980Z,1315.9
2022-12-11T15:01:12.679Z,1314.1
2022-12-11T15:02:56.385Z,1309.5
2022-12-11T15:04:40.094Z,1305.5
2022-12-11T15:06:23.788Z,1311.3
2022-12-11T15:08:07.486Z,1310.5
2022-12-11T15:09:51.201Z,1310.7
2022-12-11T15:11:34.901Z,1306.3
2022-12-11T15:13:18.610Z,1311.8
2022-12-11T15:15:02.362Z,1313.1
2022-12-11T15:16:46.013Z,1318
2022-12-11T15:18:29.709Z,1320.7
2022-12-11T15:20:13.425Z,1319.8
2022-12-11T15:21:57.187Z,1321.5
2022-12-11T15:23:40.846Z,1319.2
2022-12-11T15:25:24.532Z,1318
2022-12-11T15:27:08.265Z,1321.3
2022-12-11T15:28:51.928Z,1318.6
2022-12-11T15:30:35.717Z,1316.9
2022-12-11T15:32:19.335Z,1316.9
2022-12-11T15:34:03.050Z,1312.8
2022-12-11T15:35:46.741Z,1314.1
2022-12-11T15:37:30.438Z,1317.3
2022-12-11T15:39:14.147Z,1316.9
2022-12-11T15:40:57.920Z,1316.5
2022-12-11T15:42:41.542Z,1315.1
2022-12-11T15:44:25.260Z,1311.3
2022-12-11T15:46:08.964Z,1309.8
2022-12-11T15:47:52.657Z,1310.5
2022-12-11T15:49:36.364Z,1313.5
2022-12-11T15:51:20.069Z,1320.5
2022-12-11T15:53:03.783Z,1315.1
2022-12-11T15:54:47.513Z,1316
2022-12-11T15:56:31.179Z,1318.4
2022-12-11T15:58:14.877Z,1320.9
2022-12-11T15:59:58.642Z,1320.3
2022-12-11T16:01:42.289Z,1318.5
2022-12-11T16:03:25.988Z,1318.2
2022-12-11T16:05:09.692Z,1317.2
2022-12-11T16:06:53.397Z,1312.2
2022-12-11T16:08:37.162Z,1315.8
2022-12-11T16:10:20.827Z,1324.9
2022-12-11T16:12:04.506Z,1321.3
2022-12-11T16:13:48.202Z,1321.7
2022-12-11T16:15:31.922Z,1320.1
2022-12-11T16:17:15.615Z,1319.8
2022-12-11T16:18:59.314Z,1316.8
2022-12-11T16:20:43.025Z,1319.6
2022-12-11T16:22:26.725Z,1325.7
2022-12-11T16:24:10.426Z,1327
2022-12-11T16:25:54.146Z,1327.2
2022-12-11T16:27:37.917Z,1328.1
2022-12-11T16:29:21.608Z,1338
2022-12-11T16:31:05.235Z,1343.1
2022-12-11T16:32:48.954Z,1345.5
2022-12-11T16:34:32.661Z,1346
2022-12-11T16:36:16.376Z,1352.5
2022-12-11T16:38:00.231Z,1353.8
2022-12-11T16:39:43.757Z,1350.9
2022-12-11T16:41:27.457Z,1350.7
2022-12-11T16:43:11.148Z,1352.1
2022-12-11T16:44:54.961Z,1354.1
2022-12-11T16:46:38.566Z,1363
2022-12-11T16:48:22.295Z,1360.7
2022-12-11T16:50:05.977Z,1354
2022-12-11T16:51:49.667Z,1350.4
2022-12-11T16:53:33.377Z,1354.2
2022-12-11T16:55:17.143Z,1355.9
2022-12-11T16:57:00.827Z,1360.4
2022-12-11T16:58:44.481Z,1364.3
2022-12-11T17:00:28.188Z,1363.7
2022-12-11T17:02:11.974Z,1363.8
2022-12-11T17:03:55.595Z,1369.4
2022-12-11T17:05:39.371Z,1373.3
2022-12-11T17:07:23.001Z,1380.3
2022-12-11T17:09:06.700Z,1386.6
2022-12-11T17:10:50.425Z,1389.7
2022-12-11T17:12:34.152Z,1390.2
2022-12-11T17:14:17.821Z,1387.8
2022-12-11T17:16:01.512Z,1389.6
2022-12-11T17:17:45.230Z,1389.1
2022-12-11T17:19:28.924Z,1398
2022-12-11T17:21:12.625Z,1400.3
2022-12-11T17:22:56.340Z,1404.2
2022-12-11T17:24:40.022Z,1410.9
2022-12-11T17:26:23.754Z,1401.3
2022-12-11T17:28:07.517Z,1391.8
2022-12-11T17:29:51.187Z,1397.9
2022-12-11T17:31:34.873Z,1396.7
2022-12-11T17:33:18.540Z,1399.2
2022-12-11T17:35:02.239Z,1401.1
2022-12-11T17:36:45.952Z,1406.1
2022-12-11T17:38:29.762Z,1406.3
2022-12-11T17:40:13.366Z,1407.6
2022-12-11T17:41:57.056Z,1405.8
2022-12-11T17:43:40.755Z,1403.3
2022-12-11T17:45:24.498Z,1395.7
2022-12-11T17:47:08.173Z,1390.2
2022-12-11T17:48:51.912Z,1388.9
2022-12-11T17:50:35.579Z,1386.9
2022-12-11T17:52:19.274Z,1382.5
2022-12-11T17:54:03.016Z,1382.5
2022-12-11T17:55:46.685Z,1374.2
2022-12-11T17:57:30.384Z,1367.3
2022-12-11T17:59:14.091Z,1357.5
2022-12-11T18:00:57.798Z,1356
2022-12-11T18:02:41.536Z,1353
2022-12-11T18:04:25.192Z,1351.9
2022-12-11T18:06:08.895Z,1351.5
2022-12-11T18:07:52.593Z,1348.7
2022-12-11T18:09:36.320Z,1349
2022-12-11T18:11:20.002Z,1350.6
2022-12-11T18:13:03.699Z,1353.3
2022-12-11T18:14:47.408Z,1347.6
2022-12-11T18:16:31.110Z,1346.1
2022-12-11T18:18:14.812Z,1338.3
2022-12-11T18:19:58.513Z,1335.5
2022-12-11T18:21:42.241Z,1337.4
2022-12-11T18:23:25.924Z,1332.4
2022-12-11T18:25:09.662Z,1329.6
2022-12-11T18:26:53.482Z,1331.5
2022-12-11T18:28:37.038Z,1328.6
2022-12-11T18:30:20.812Z,1330.3
2022-12-11T18:32:04.482Z,1334
2022-12-11T18:33:48.137Z,1336.5
2022-12-11T18:35:31.857Z,1339
2022-12-11T18:37:15.549Z,1341.9
2022-12-11T18:38:59.247Z,1340.5
2022-12-11T18:40:42.961Z,1337.2
2022-12-11T18:42:26.660Z,1331.9
2022-12-11T18:44:10.362Z,1327.8
2022-12-11T18:45:54.226Z,1331.4
2022-12-11T18:47:37.756Z,1333.3
2022-12-11T18:49:21.463Z,1334.4
2022-12-11T18:51:05.167Z,1333
2022-12-11T18:52:48.873Z,1331.6
2022-12-11T18:54:32.572Z,1339.5
2022-12-11T18:56:16.282Z,1352.7
2022-12-11T18:57:59.994Z,1375.4
2022-12-11T18:59:43.678Z,1390.8
2022-12-11T19:01:27.421Z,1398.2
2022-12-11T19:03:11.165Z,1413.7
2022-12-11T19:04:54.803Z,1426.1
2022-12-11T19:06:38.604Z,1431.9
2022-12-11T19:08:22.195Z,1441.6
2022-12-11T19:10:05.907Z,1445.2
2022-12-11T19:11:49.594Z,1453.9
2022-12-11T19:13:33.298Z,1461.3
2022-12-11T19:15:17.001Z,1463.7
2022-12-11T19:17:00.748Z,1464.7
2022-12-11T19:18:44.422Z,1469.5
2022-12-11T19:20:28.102Z,1482.1
2022-12-11T19:22:11.887Z,1512.8
2022-12-11T19:23:55.518Z,1534.8
2022-12-11T19:25:39.218Z,1563.7
2022-12-11T19:27:22.923Z,1569.7
2022-12-11T19:29:06.620Z,1569.2
2022-12-11T19:30:50.395Z,1574.9
2022-12-11T19:32:34.030Z,1582.1
2022-12-11T19:34:17.741Z,1587.6
2022-12-11T19:36:01.432Z,1595.7
2022-12-11T19:37:45.129Z,1599.3
2022-12-11T19:39:28.842Z,1606.3
2022-12-11T19:41:12.544Z,1608.8
2022-12-11T19:42:56.277Z,1608.5
2022-12-11T19:44:39.998Z,1610.7
2022-12-11T19:46:23.651Z,1615.1
2022-12-11T19:48:07.355Z,1629.6
2022-12-11T19:49:51.061Z,1644.9
2022-12-11T19:51:34.757Z,1645.7
2022-12-11T19:53:18.461Z,1104.6
2022-12-11T19:55:02.175Z,788.7
2022-12-11T19:56:45.887Z,1321.7
2022-12-11T19:58:29.568Z,1610.3
2022-12-11T20:00:13.286Z,1559.1
2022-12-11T20:01:56.966Z,1344.5
2022-12-11T20:03:40.677Z,1362.2
2022-12-11T20:05:24.385Z,1387.7
2022-12-11T20:07:08.142Z,1399
2022-12-11T20:08:51.783Z,1406.4
2022-12-11T20:10:35.486Z,1408
2022-12-11T20:12:19.286Z,1406.1
2022-12-11T20:14:02.899Z,1404.6
2022-12-11T20:15:46.587Z,1395.2
2022-12-11T20:17:30.294Z,1390.3
2022-12-11T20:19:14.028Z,1385.3
2022-12-11T20:20:57.745Z,1381.5
2022-12-11T20:22:41.404Z,1381.4
2022-12-11T20:24:25.107Z,1382.8
2022-12-11T20:26:08.815Z,1379
2022-12-11T20:27:52.582Z,1372.8
2022-12-11T20:29:36.207Z,1373.2
2022-12-11T20:31:19.921Z,1376.6
2022-12-11T20:33:03.663Z,1373.8
2022-12-11T20:34:47.384Z,1368.9
2022-12-11T20:36:31.022Z,1366.3
2022-12-11T20:38:14.735Z,1363.6
2022-12-11T20:39:58.422Z,1360.2
2022-12-11T20:41:42.130Z,1357.6
2022-12-11T20:43:25.870Z,1356.7
2022-12-11T20:45:09.542Z,1356
2022-12-11T20:46:53.367Z,1352.1
2022-12-11T20:48:37.002Z,1350.1
2022-12-11T20:50:20.646Z,1348.8
2022-12-11T20:52:04.359Z,1341.8
2022-12-11T20:53:48.057Z,1349.6
2022-12-11T20:55:31.833Z,1342.2
2022-12-11T20:57:15.522Z,1338.5
2022-12-11T20:58:59.196Z,1334.4
2022-12-11T21:00:42.880Z,1332.5
2022-12-11T21:02:26.566Z,1339.1
2022-12-11T21:04:10.368Z,1343.1
2022-12-11T21:05:54.058Z,1347
2022-12-11T21:07:37.674Z,1354.1
2022-12-11T21:09:21.386Z,1355.5
2022-12-11T21:11:05.151Z,1360.1
2022-12-11T21:12:48.787Z,1364.4
2022-12-11T21:14:32.487Z,1362.3
2022-12-11T21:16:16.189Z,1362.9
2022-12-11T21:17:59.937Z,1363.9
2022-12-11T21:19:43.660Z,1363.7
2022-12-11T21:21:27.436Z,1361.4
2022-12-11T21:23:11.005Z,1362.7
2022-12-11T21:24:54.785Z,1368.5
2022-12-11T21:26:38.516Z,1372.1
2022-12-11T21:28:22.125Z,1372.6
2022-12-11T21:30:05.830Z,1368.5
2022-12-11T21:31:49.543Z,1371.1
2022-12-11T21:33:33.233Z,1372.4
2022-12-11T21:35:16.952Z,1369.5
2022-12-11T21:37:00.621Z,1371.8
2022-12-11T21:38:44.323Z,1374
2022-12-11T21:40:28.064Z,1395.8
2022-12-11T21:42:11.731Z,1469
2022-12-11T21:43:55.431Z,1475.4
2022-12-11T21:45:39.148Z,1457.9
2022-12-11T21:47:22.845Z,1449.6
2022-12-11T21:49:06.575Z,1440.6
2022-12-11T21:50:50.305Z,1437.2
2022-12-11T21:52:33.967Z,1430.9
2022-12-11T21:54:17.650Z,1427.7
2022-12-11T21:56:01.360Z,1419.9
2022-12-11T21:57:45.084Z,1418.3
2022-12-11T21:59:28.767Z,1413.7
2022-12-11T22:01:12.460Z,1417.9